Time;durP1;ratioP1;P1;durP2;ratioP2;P2;SDS_P1;SDS_P2;PMS_P1;PMS_P2;Temp;Humidity;BMP_temperature;BMP_pressure;BME280_temperature;BME280_humidity;BME280_pressure;Samples;Min_cycle;Max_cycle;Signal;HPM_P1;HPM_P2
2022/04/12 00:00:37;;;;;;;2.38;0.93;;;21.80;42.70;;;;;;4988451;28;20037;-64
2022/04/12 00:03:03;;;;;;;1.48;0.80;;;21.80;42.80;;;;;;4989411;28;20026;-61
2022/04/12 00:05:29;;;;;;;0.95;0.70;;;21.80;42.70;;;;;;4991514;28;20093;-64
2022/04/12 00:07:55;;;;;;;1.20;0.70;;;21.80;42.70;;;;;;4992738;28;20081;-63
2022/04/12 00:10:21;;;;;;;1.23;0.70;;;21.80;42.70;;;;;;4991006;28;20029;-61
2022/04/12 00:12:47;;;;;;;0.93;0.60;;;21.80;42.80;;;;;;4990714;28;20030;-64
2022/04/12 00:15:13;;;;;;;1.25;0.80;;;21.80;42.80;;;;;;4991258;28;20034;-61
2022/04/12 00:20:28;;;;;;;0.75;0.60;;;21.70;42.70;;;;;;4991416;28;20052;-61
2022/04/12 00:22:57;;;;;;;0.70;0.60;;;21.70;42.70;;;;;;4990953;28;20141;-62
2022/04/12 00:25:24;;;;;;;1.42;0.80;;;21.70;42.70;;;;;;4989230;28;20034;-62
2022/04/12 00:27:52;;;;;;;0.80;0.65;;;21.70;42.70;;;;;;4988439;28;20631;-62
2022/04/12 00:30:18;;;;;;;1.02;0.63;;;21.70;42.70;;;;;;4991797;28;20022;-61
2022/04/12 00:32:44;;;;;;;0.70;0.60;;;21.70;42.70;;;;;;4990546;28;20030;-62
2022/04/12 00:35:11;;;;;;;0.93;0.60;;;21.70;42.70;;;;;;4990597;28;20269;-63
2022/04/12 00:37:36;;;;;;;0.90;0.70;;;21.70;42.70;;;;;;4993284;28;20060;-62
2022/04/12 00:40:04;;;;;;;1.08;0.70;;;21.70;42.70;;;;;;4992815;28;20029;-61
2022/04/12 00:42:30;;;;;;;1.38;0.75;;;21.60;42.70;;;;;;4992004;28;20026;-64
2022/04/12 00:44:56;;;;;;;0.95;0.70;;;21.60;42.70;;;;;;4995326;28;20205;-62
2022/04/12 00:47:22;;;;;;;1.75;0.70;;;21.60;42.70;;;;;;4993442;28;20021;-62
2022/04/12 00:49:47;;;;;;;1.95;0.80;;;21.60;43.20;;;;;;4993247;28;20034;-63
2022/04/12 00:52:14;;;;;;;0.60;0.60;;;21.60;42.70;;;;;;4996061;28;20378;-62
2022/04/12 00:54:40;;;;;;;0.77;0.60;;;21.60;42.70;;;;;;4993016;28;20084;-64
2022/04/12 00:57:06;;;;;;;1.08;0.70;;;21.60;42.70;;;;;;4996798;28;20033;-61
2022/04/12 00:59:32;;;;;;;1.10;0.80;;;21.60;42.70;;;;;;4994257;28;20061;-64
2022/04/12 01:01:58;;;;;;;0.98;0.60;;;21.60;42.70;;;;;;4991547;28;20108;-60
2022/04/12 01:04:24;;;;;;;1.00;0.65;;;21.60;42.70;;;;;;4994493;28;20065;-61
2022/04/12 01:06:51;;;;;;;1.30;0.70;;;21.60;42.70;;;;;;4994031;28;20475;-62
2022/04/12 01:09:17;;;;;;;1.08;0.63;;;21.60;42.70;;;;;;4995489;28;20092;-65
2022/04/12 01:11:48;;;;;;;1.45;0.70;;;21.60;42.70;;;;;;4997799;28;20486;-62
2022/04/12 01:14:15;;;;;;;1.48;0.60;;;21.50;42.60;;;;;;4997761;28;20329;-65
2022/04/12 01:16:40;;;;;;;1.00;0.70;;;21.60;42.70;;;;;;4996735;28;20038;-65
2022/04/12 01:19:06;;;;;;;1.20;0.70;;;21.50;42.60;;;;;;4995026;28;20052;-61
2022/04/12 01:21:38;;;;;;;1.08;0.80;;;21.50;42.60;;;;;;4994141;28;20522;-62
2022/04/12 01:24:05;;;;;;;1.20;0.80;;;21.50;42.60;;;;;;4995397;28;20021;-62
2022/04/12 01:26:32;;;;;;;0.65;0.65;;;21.50;42.70;;;;;;4992180;28;20034;-62
2022/04/12 01:28:58;;;;;;;1.85;0.70;;;21.50;42.70;;;;;;4996696;28;20026;-65
2022/04/12 01:31:25;;;;;;;1.20;0.70;;;21.50;42.70;;;;;;4990127;28;20398;-65
2022/04/12 01:33:52;;;;;;;0.90;0.63;;;21.50;42.70;;;;;;4993525;28;20145;-62
2022/04/12 01:36:18;;;;;;;1.35;0.80;;;21.50;42.70;;;;;;4995069;28;20029;-62
2022/04/12 01:38:43;;;;;;;1.65;0.90;;;21.50;42.70;;;;;;4997153;28;20018;-64
2022/04/12 01:41:09;;;;;;;0.98;0.70;;;21.50;42.70;;;;;;4993281;28;20026;-64
2022/04/12 01:43:35;;;;;;;0.88;0.68;;;21.50;42.70;;;;;;4994332;28;20611;-60
2022/04/12 01:46:00;;;;;;;0.85;0.60;;;21.40;42.60;;;;;;4992837;28;20093;-63
2022/04/12 01:48:26;;;;;;;1.27;0.70;;;21.50;42.70;;;;;;4992905;28;20346;-64
2022/04/12 01:50:52;;;;;;;0.90;0.60;;;21.40;42.60;;;;;;4994790;28;20079;-60
2022/04/12 01:53:17;;;;;;;0.68;0.60;;;21.40;42.60;;;;;;4996055;28;20556;-61
2022/04/12 01:55:43;;;;;;;0.80;0.70;;;21.40;42.70;;;;;;4994844;28;20104;-63
2022/04/12 01:58:09;;;;;;;0.93;0.70;;;21.40;42.60;;;;;;4989748;28;20096;-62
2022/04/12 02:00:37;;;;;;;1.38;0.80;;;21.40;42.70;;;;;;4992473;28;20089;-61
2022/04/12 02:03:03;;;;;;;1.00;0.80;;;21.40;42.70;;;;;;4991171;28;20504;-61
2022/04/12 02:05:29;;;;;;;0.93;0.70;;;21.40;42.60;;;;;;4995596;28;20118;-61
2022/04/12 02:07:55;;;;;;;0.90;0.65;;;21.40;42.70;;;;;;4991650;28;20022;-63
2022/04/12 02:10:22;;;;;;;0.90;0.70;;;21.40;42.70;;;;;;4994272;28;20360;-61
2022/04/12 02:12:49;;;;;;;0.60;0.60;;;21.40;42.70;;;;;;4992888;28;20069;-61
2022/04/12 02:15:15;;;;;;;0.70;0.60;;;21.40;42.70;;;;;;4993707;28;20490;-64
2022/04/12 02:17:40;;;;;;;0.60;0.50;;;21.40;42.70;;;;;;4993085;28;20058;-63
2022/04/12 02:20:06;;;;;;;1.50;0.77;;;21.30;42.60;;;;;;5002512;28;20189;-61
2022/04/12 02:22:32;;;;;;;0.90;0.70;;;21.30;42.60;;;;;;4990279;28;20033;-64
2022/04/12 02:24:57;;;;;;;1.55;0.82;;;21.40;42.70;;;;;;4993661;28;20033;-64
2022/04/12 02:27:23;;;;;;;0.77;0.60;;;21.40;42.70;;;;;;4992701;28;20058;-62
2022/04/12 02:29:49;;;;;;;0.50;0.50;;;21.30;42.60;;;;;;4993387;28;20037;-62
2022/04/12 02:32:14;;;;;;;1.17;0.80;;;21.30;42.60;;;;;;4990967;28;20022;-61
2022/04/12 02:34:40;;;;;;;1.35;0.70;;;21.30;42.70;;;;;;4986974;28;20465;-61
2022/04/12 02:37:05;;;;;;;0.95;0.70;;;21.30;42.70;;;;;;4991530;28;20040;-64
2022/04/12 02:39:31;;;;;;;1.15;0.70;;;21.30;42.70;;;;;;4995521;28;20579;-65
2022/04/12 02:41:57;;;;;;;0.70;0.60;;;21.30;42.70;;;;;;4993161;28;20348;-60
2022/04/12 02:44:22;;;;;;;1.23;0.70;;;21.30;42.70;;;;;;4991098;28;20033;-61
2022/04/12 02:46:48;;;;;;;1.08;0.63;;;21.30;42.70;;;;;;4989384;28;20038;-64
2022/04/12 02:49:14;;;;;;;0.90;0.70;;;21.30;42.70;;;;;;4993155;28;20040;-62
2022/04/12 02:51:39;;;;;;;0.73;0.55;;;21.30;42.70;;;;;;4992221;28;20120;-60
2022/04/12 02:54:05;;;;;;;0.95;0.70;;;21.20;42.60;;;;;;4993906;28;20123;-62
2022/04/12 02:56:31;;;;;;;0.73;0.65;;;21.20;42.60;;;;;;4992049;28;20395;-61
2022/04/12 02:58:56;;;;;;;0.93;0.70;;;21.20;42.60;;;;;;4992484;28;20030;-60
2022/04/12 03:01:22;;;;;;;0.63;0.60;;;21.20;42.60;;;;;;4991446;28;20030;-64
2022/04/12 03:03:47;;;;;;;0.55;0.55;;;21.30;42.70;;;;;;4989570;28;20041;-63
2022/04/12 03:06:13;;;;;;;0.77;0.63;;;21.20;42.60;;;;;;4993911;28;20552;-62
2022/04/12 03:08:39;;;;;;;0.90;0.65;;;21.20;42.70;;;;;;4994256;28;20117;-64
2022/04/12 03:11:04;;;;;;;1.10;0.70;;;21.20;42.60;;;;;;4993748;28;20080;-61
2022/04/12 03:13:30;;;;;;;0.60;0.60;;;21.20;43.20;;;;;;4991235;28;20034;-64
2022/04/12 03:15:56;;;;;;;1.67;0.60;;;21.20;42.70;;;;;;4991699;28;20490;-64
2022/04/12 03:18:21;;;;;;;0.60;0.60;;;21.20;42.70;;;;;;4990033;28;20113;-62
2022/04/12 03:20:48;;;;;;;0.85;0.80;;;21.20;42.70;;;;;;5006500;28;20034;-62
2022/04/12 03:23:14;;;;;;;0.70;0.50;;;21.20;42.70;;;;;;4993485;28;20113;-61
2022/04/12 03:25:40;;;;;;;1.10;0.70;;;21.20;42.70;;;;;;4992170;28;20117;-61
2022/04/12 03:28:06;;;;;;;0.95;0.65;;;21.20;42.70;;;;;;4991184;28;20049;-62
2022/04/12 03:30:31;;;;;;;0.63;0.60;;;21.20;42.70;;;;;;4989774;28;20083;-60
2022/04/12 03:32:57;;;;;;;0.77;0.60;;;21.20;42.70;;;;;;4989128;28;20109;-62
2022/04/12 03:35:23;;;;;;;0.80;0.65;;;21.20;42.70;;;;;;4992318;28;20104;-62
2022/04/12 03:37:49;;;;;;;0.68;0.50;;;21.10;42.60;;;;;;4992850;28;20512;-61
2022/04/12 03:40:14;;;;;;;0.95;0.70;;;21.10;43.20;;;;;;4993118;28;20114;-63
2022/04/12 03:42:40;;;;;;;1.05;0.70;;;21.10;42.60;;;;;;4992257;28;20526;-62
2022/04/12 03:45:06;;;;;;;0.80;0.70;;;21.10;42.60;;;;;;4992098;28;20171;-62
2022/04/12 03:47:32;;;;;;;0.60;0.60;;;21.10;42.70;;;;;;4989792;28;20075;-62
2022/04/12 03:49:57;;;;;;;0.60;0.60;;;21.10;42.70;;;;;;4989682;28;20033;-62
2022/04/12 03:52:23;;;;;;;0.85;0.60;;;21.10;42.70;;;;;;4991191;28;20030;-60
2022/04/12 03:54:48;;;;;;;0.63;0.60;;;21.10;42.70;;;;;;4994117;28;20390;-61
2022/04/12 03:57:14;;;;;;;0.73;0.60;;;21.10;42.70;;;;;;4992606;28;20032;-61
2022/04/12 03:59:40;;;;;;;0.68;0.60;;;21.10;42.70;;;;;;4992482;28;20482;-62
2022/04/12 04:02:06;;;;;;;0.75;0.70;;;21.10;42.70;;;;;;4990742;28;20045;-61
2022/04/12 04:04:31;;;;;;;0.98;0.68;;;21.10;42.70;;;;;;4992840;28;20462;-62
2022/04/12 04:06:57;;;;;;;0.60;0.60;;;21.10;42.70;;;;;;4993952;28;20069;-62
2022/04/12 04:09:23;;;;;;;0.50;0.50;;;21.10;42.70;;;;;;4991039;28;20065;-63
2022/04/12 04:11:49;;;;;;;0.85;0.70;;;21.00;43.20;;;;;;4991085;28;20026;-64
2022/04/12 04:14:15;;;;;;;0.65;0.57;;;21.10;42.70;;;;;;4990436;28;20032;-62
2022/04/12 04:16:41;;;;;;;0.95;0.60;;;21.00;42.70;;;;;;4986427;28;20172;-62
2022/04/12 04:19:09;;;;;;;0.80;0.70;;;21.00;42.70;;;;;;4992072;28;20040;-61
2022/04/12 04:21:36;;;;;;;0.68;0.57;;;21.10;42.70;;;;;;4989230;28;20041;-62
2022/04/12 04:24:02;;;;;;;0.80;0.60;;;21.00;42.70;;;;;;4990893;28;20443;-64
2022/04/12 04:26:27;;;;;;;0.85;0.63;;;21.00;42.70;;;;;;4989242;28;20037;-64
2022/04/12 04:28:53;;;;;;;0.82;0.60;;;21.00;42.70;;;;;;4993885;28;20034;-61
2022/04/12 04:31:18;;;;;;;0.90;0.70;;;21.00;42.70;;;;;;4988882;28;20095;-61
2022/04/12 04:33:44;;;;;;;0.77;0.50;;;21.00;42.70;;;;;;4989402;28;20466;-62
2022/04/12 04:36:10;;;;;;;0.60;0.55;;;21.00;42.70;;;;;;4993655;28;20049;-60
2022/04/12 04:38:35;;;;;;;0.60;0.50;;;21.00;42.70;;;;;;4991438;28;20038;-61
2022/04/12 04:41:01;;;;;;;0.70;0.70;;;21.00;42.70;;;;;;4992502;28;20898;-62
2022/04/12 04:43:27;;;;;;;0.77;0.60;;;21.00;42.70;;;;;;4993101;28;20171;-62
2022/04/12 04:45:53;;;;;;;0.82;0.60;;;21.00;42.70;;;;;;4990550;28;20343;-62
2022/04/12 04:48:19;;;;;;;0.52;0.52;;;21.00;42.70;;;;;;4988172;28;20026;-64
2022/04/12 04:50:44;;;;;;;0.70;0.60;;;21.00;42.70;;;;;;4990485;28;20477;-60
2022/04/12 04:53:10;;;;;;;1.58;0.55;;;21.00;42.70;;;;;;4991039;28;20034;-61
2022/04/12 04:55:37;;;;;;;0.70;0.60;;;21.00;42.70;;;;;;4990736;28;20107;-62
2022/04/12 04:58:04;;;;;;;0.68;0.57;;;21.00;42.70;;;;;;4990432;28;20025;-62
2022/04/12 05:00:31;;;;;;;0.82;0.60;;;21.00;42.70;;;;;;4991598;28;20156;-61
2022/04/12 05:02:58;;;;;;;0.50;0.50;;;21.00;42.70;;;;;;4986209;28;20033;-64
2022/04/12 05:05:24;;;;;;;0.68;0.68;;;21.00;42.70;;;;;;4991206;28;20481;-62
2022/04/12 05:07:52;;;;;;;0.77;0.50;;;21.00;42.70;;;;;;4991194;28;20065;-60
2022/04/12 05:10:20;;;;;;;1.00;0.60;;;20.90;42.70;;;;;;4992284;28;20032;-61
2022/04/12 05:12:46;;;;;;;0.90;0.60;;;20.90;42.60;;;;;;4992189;28;20040;-62
2022/04/12 05:15:12;;;;;;;0.50;0.50;;;20.90;42.70;;;;;;4990615;28;20018;-62
2022/04/12 05:17:38;;;;;;;0.77;0.55;;;20.90;42.70;;;;;;4987232;28;20044;-62
2022/04/12 05:20:09;;;;;;;0.73;0.60;;;20.90;42.70;;;;;;4991286;28;20386;-62
2022/04/12 05:22:35;;;;;;;0.90;0.57;;;20.90;42.70;;;;;;4989273;28;20104;-60
2022/04/12 05:25:00;;;;;;;0.50;0.50;;;20.90;42.70;;;;;;4992901;28;20402;-64
2022/04/12 05:27:31;;;;;;;0.95;0.70;;;20.90;42.80;;;;;;4993415;28;20033;-64
2022/04/12 05:29:58;;;;;;;0.55;0.55;;;20.90;42.70;;;;;;4987472;28;20041;-62
2022/04/12 05:32:24;;;;;;;0.77;0.55;;;20.90;42.80;;;;;;4981097;28;20041;-61
2022/04/12 05:34:50;;;;;;;0.52;0.52;;;20.90;42.70;;;;;;4986954;28;20092;-62
2022/04/12 05:37:15;;;;;;;0.50;0.50;;;20.90;42.70;;;;;;4986594;28;20676;-64
2022/04/12 05:39:41;;;;;;;0.60;0.60;;;20.90;42.70;;;;;;4988562;28;20030;-62
2022/04/12 05:42:07;;;;;;;0.50;0.50;;;20.90;42.70;;;;;;4986466;28;20038;-61
2022/04/12 05:44:33;;;;;;;0.70;0.63;;;20.90;42.70;;;;;;4988566;28;20030;-62
2022/04/12 05:47:00;;;;;;;0.82;0.60;;;20.90;42.80;;;;;;4987500;28;20030;-61
2022/04/12 05:49:26;;;;;;;0.63;0.50;;;20.90;42.70;;;;;;4989323;28;20030;-60
2022/04/12 05:51:51;;;;;;;0.73;0.70;;;20.90;42.80;;;;;;4987578;28;20134;-63
2022/04/12 05:54:17;;;;;;;0.60;0.60;;;20.90;42.80;;;;;;4988376;28;20679;-61
2022/04/12 05:56:42;;;;;;;0.40;0.40;;;20.90;42.80;;;;;;4988382;28;20022;-62
2022/04/12 05:59:08;;;;;;;0.50;0.50;;;20.90;42.80;;;;;;4990088;28;20041;-65
2022/04/12 06:01:34;;;;;;;0.63;0.50;;;20.90;42.80;;;;;;4991816;28;20045;-63
2022/04/12 06:04:00;;;;;;;0.60;0.60;;;20.90;42.80;;;;;;4990475;28;20048;-63
2022/04/12 06:06:27;;;;;;;0.60;0.60;;;20.80;42.80;;;;;;4995049;28;20083;-62
2022/04/12 06:08:53;;;;;;;0.50;0.50;;;20.90;42.80;;;;;;4994691;28;20121;-63
2022/04/12 06:11:19;;;;;;;0.75;0.60;;;20.90;42.80;;;;;;4994834;28;20030;-62
2022/04/12 06:13:45;;;;;;;0.80;0.68;;;20.90;42.80;;;;;;4991067;28;20029;-65
2022/04/12 06:16:11;;;;;;;0.80;0.60;;;20.90;42.80;;;;;;4993039;28;20045;-64
2022/04/12 06:18:36;;;;;;;0.80;0.60;;;20.90;42.80;;;;;;4992633;28;20092;-65
2022/04/12 06:21:02;;;;;;;0.88;0.60;;;20.80;42.80;;;;;;4993361;28;20033;-60
2022/04/12 06:23:28;;;;;;;0.60;0.50;;;20.80;42.80;;;;;;4991466;28;21556;-62
2022/04/12 06:25:54;;;;;;;0.85;0.55;;;20.80;42.80;;;;;;4993313;28;20030;-63
2022/04/12 06:28:20;;;;;;;0.60;0.60;;;20.80;42.80;;;;;;4994381;28;20359;-62
2022/04/12 06:30:47;;;;;;;0.50;0.50;;;20.80;42.80;;;;;;4992348;28;20128;-63
2022/04/12 06:33:13;;;;;;;0.60;0.60;;;20.80;42.80;;;;;;4990413;28;20030;-62
2022/04/12 06:35:39;;;;;;;0.60;0.57;;;20.80;42.80;;;;;;4990989;28;20040;-63
2022/04/12 06:38:05;;;;;;;0.60;0.60;;;20.80;42.90;;;;;;4993761;28;20037;-63
2022/04/12 06:40:30;;;;;;;0.57;0.50;;;20.80;42.90;;;;;;4994310;28;20048;-64
2022/04/12 06:42:56;;;;;;;0.50;0.50;;;20.80;42.90;;;;;;4993995;28;20164;-64
2022/04/12 06:45:22;;;;;;;0.73;0.60;;;20.80;42.90;;;;;;4994673;28;20135;-63
2022/04/12 06:47:56;;;;;;;0.90;0.70;;;20.80;42.90;;;;;;4992831;28;20029;-62
2022/04/12 06:50:22;;;;;;;0.95;0.68;;;20.80;42.90;;;;;;4990446;28;20121;-64
2022/04/12 06:52:48;;;;;;;0.93;0.70;;;20.80;42.90;;;;;;4992566;28;20034;-62
2022/04/12 06:55:16;;;;;;;1.02;0.70;;;20.80;42.90;;;;;;4994111;28;20041;-61
2022/04/12 06:57:42;;;;;;;0.70;0.60;;;20.80;42.90;;;;;;4992895;28;20045;-60
2022/04/12 07:00:09;;;;;;;0.93;0.68;;;20.80;42.90;;;;;;4990492;28;20034;-62
2022/04/12 07:02:35;;;;;;;0.60;0.60;;;20.80;42.90;;;;;;4988504;28;20045;-64
2022/04/12 07:05:02;;;;;;;0.52;0.52;;;20.80;43.00;;;;;;4993596;28;20034;-63
2022/04/12 07:07:28;;;;;;;2.70;0.68;;;20.80;43.00;;;;;;4988059;28;20418;-63
2022/04/12 07:09:55;;;;;;;0.60;0.60;;;20.80;43.00;;;;;;4989610;28;20041;-61
2022/04/12 07:12:20;;;;;;;0.60;0.57;;;20.80;43.00;;;;;;4994105;28;20026;-61
2022/04/12 07:14:46;;;;;;;0.93;0.70;;;20.80;43.00;;;;;;4990645;28;20344;-61
2022/04/12 07:17:12;;;;;;;1.00;0.63;;;20.80;43.10;;;;;;4980628;28;20038;-61
2022/04/12 07:19:38;;;;;;;0.65;0.60;;;20.80;43.10;;;;;;4991403;28;20049;-63
2022/04/12 07:22:04;;;;;;;0.82;0.60;;;20.80;43.00;;;;;;4993152;28;20072;-62
2022/04/12 07:24:30;;;;;;;0.77;0.63;;;20.80;43.00;;;;;;4994956;28;20029;-61
2022/04/12 07:26:56;;;;;;;0.68;0.68;;;20.80;43.10;;;;;;4992621;28;20079;-61
2022/04/12 07:29:22;;;;;;;0.68;0.60;;;20.80;43.10;;;;;;4994301;28;20533;-62
2022/04/12 07:31:48;;;;;;;1.25;0.70;;;20.80;43.10;;;;;;4991385;28;20041;-63
2022/04/12 07:34:14;;;;;;;0.93;0.80;;;20.80;43.10;;;;;;4992189;28;20103;-63
2022/04/12 07:36:43;;;;;;;0.77;0.68;;;20.80;43.10;;;;;;4992407;28;20038;-60
2022/04/12 07:39:09;;;;;;;1.33;0.68;;;20.80;43.10;;;;;;4995847;28;20106;-64
2022/04/12 07:41:35;;;;;;;1.08;0.77;;;20.70;43.00;;;;;;4991648;28;20049;-63
2022/04/12 07:44:01;;;;;;;1.02;0.63;;;20.70;43.00;;;;;;4992925;28;21038;-63
2022/04/12 07:46:27;;;;;;;0.60;0.60;;;20.70;43.00;;;;;;4991367;28;20058;-62
2022/04/12 07:48:52;;;;;;;1.25;0.80;;;20.70;43.10;;;;;;4986900;28;20116;-64
2022/04/12 07:51:18;;;;;;;0.50;0.50;;;20.70;43.10;;;;;;4992545;28;20662;-63
2022/04/12 07:53:44;;;;;;;1.05;0.70;;;20.70;43.10;;;;;;4992557;28;20041;-64
2022/04/12 07:56:09;;;;;;;0.93;0.73;;;20.70;43.00;;;;;;4979647;28;20030;-62
2022/04/12 07:58:35;;;;;;;1.17;0.75;;;20.70;43.50;;;;;;5016906;28;20045;-61
2022/04/12 08:01:01;;;;;;;2.08;0.80;;;20.70;43.10;;;;;;4987571;28;20441;-61
2022/04/12 08:03:26;;;;;;;0.80;0.60;;;20.70;43.10;;;;;;4990348;28;20037;-62
2022/04/12 08:05:52;;;;;;;0.80;0.70;;;20.70;43.10;;;;;;4979688;28;20030;-62
2022/04/12 08:08:18;;;;;;;1.13;0.68;;;20.70;43.10;;;;;;4990048;28;20068;-63
2022/04/12 08:10:44;;;;;;;1.20;0.60;;;20.70;43.10;;;;;;4991203;28;20429;-64
2022/04/12 08:13:10;;;;;;;0.95;0.70;;;20.70;43.10;;;;;;4991060;28;20188;-64
2022/04/12 08:15:36;;;;;;;1.02;0.55;;;20.70;43.10;;;;;;4990420;28;20087;-65
2022/04/12 08:18:03;;;;;;;1.20;0.70;;;20.70;43.20;;;;;;4992092;28;20034;-62
2022/04/12 08:20:29;;;;;;;0.63;0.50;;;20.70;43.20;;;;;;4992022;28;20097;-62
2022/04/12 08:22:56;;;;;;;1.15;0.75;;;20.70;43.20;;;;;;4991009;28;20060;-61
2022/04/12 08:25:22;;;;;;;1.33;0.70;;;20.70;43.20;;;;;;4987665;28;20462;-62
2022/04/12 08:27:48;;;;;;;1.48;0.70;;;20.70;43.30;;;;;;4991722;28;20244;-61
2022/04/12 08:30:14;;;;;;;1.40;0.70;;;20.60;43.20;;;;;;4988915;28;20048;-61
2022/04/12 08:32:40;;;;;;;1.05;0.70;;;20.60;43.30;;;;;;4990413;28;20084;-62
2022/04/12 08:35:07;;;;;;;0.98;0.70;;;20.70;43.40;;;;;;4990779;28;20026;-64
2022/04/12 08:37:32;;;;;;;1.10;0.68;;;20.60;43.30;;;;;;4989113;28;20632;-62
2022/04/12 08:39:58;;;;;;;1.52;0.80;;;20.70;43.40;;;;;;4987667;28;20029;-62
2022/04/12 08:42:24;;;;;;;1.15;0.77;;;20.70;43.40;;;;;;4992392;28;20064;-62
2022/04/12 08:44:50;;;;;;;1.40;0.70;;;20.70;43.40;;;;;;4992835;28;20046;-64
2022/04/12 08:47:18;;;;;;;1.35;0.70;;;20.60;43.40;;;;;;4990276;28;20037;-62
2022/04/12 08:49:44;;;;;;;0.98;0.70;;;20.60;43.40;;;;;;4989419;28;20140;-64
2022/04/12 08:52:12;;;;;;;0.50;0.50;;;20.60;43.50;;;;;;4990670;28;20517;-62
2022/04/12 08:54:42;;;;;;;0.65;0.60;;;20.70;43.50;;;;;;4992896;28;20022;-63
2022/04/12 08:57:09;;;;;;;1.25;0.70;;;20.60;43.60;;;;;;4991941;28;20064;-62
2022/04/12 08:59:34;;;;;;;1.17;0.70;;;20.60;43.60;;;;;;4988246;28;20030;-63
2022/04/12 09:02:00;;;;;;;1.77;0.80;;;20.60;43.60;;;;;;4993921;28;20104;-60
2022/04/12 09:04:27;;;;;;;1.10;0.70;;;20.60;43.50;;;;;;4995993;28;20069;-62
2022/04/12 09:06:55;;;;;;;0.88;0.60;;;20.60;43.60;;;;;;4993737;28;20037;-64
2022/04/12 09:09:23;;;;;;;1.23;0.70;;;20.60;43.60;;;;;;4996203;28;20029;-63
2022/04/12 09:11:58;;;;;;;1.38;0.60;;;20.70;43.60;;;;;;4996043;28;20033;-62
2022/04/12 09:14:25;;;;;;;1.15;0.77;;;20.60;43.60;;;;;;4997814;28;20018;-63
2022/04/12 09:16:52;;;;;;;1.80;0.88;;;20.60;43.60;;;;;;4993599;28;20033;-62
2022/04/12 09:19:36;;;;;;;1.52;0.80;;;20.70;43.70;;;;;;4995641;28;20117;-62
2022/04/12 09:22:10;;;;;;;1.38;0.70;;;20.60;43.70;;;;;;4993344;28;20022;-62
2022/04/12 09:24:42;;;;;;;1.27;0.75;;;20.60;43.60;;;;;;4994842;28;20030;-61
2022/04/12 09:27:12;;;;;;;1.45;0.70;;;20.60;43.60;;;;;;4993427;28;20034;-61
2022/04/12 09:29:44;;;;;;;1.35;0.70;;;20.60;43.50;;;;;;4997487;28;20057;-61
2022/04/12 09:32:13;;;;;;;1.15;0.70;;;20.60;43.60;;;;;;4992684;28;20073;-61
2022/04/12 09:34:40;;;;;;;1.05;0.63;;;20.60;43.60;;;;;;4993125;28;20030;-63
2022/04/12 09:37:18;;;;;;;0.82;0.63;;;20.70;44.20;;;;;;4996091;28;20088;-62
2022/04/12 09:39:54;;;;;;;2.67;0.90;;;20.60;43.60;;;;;;4990722;28;20030;-62
2022/04/12 09:42:46;;;;;;;0.90;0.60;;;20.60;43.60;;;;;;4990524;28;20107;-62
2022/04/12 09:45:23;;;;;;;1.05;0.55;;;20.60;43.60;;;;;;4993464;28;20742;-60
2022/04/12 09:47:51;;;;;;;1.15;0.70;;;20.60;43.60;;;;;;4993692;28;20059;-61
2022/04/12 09:50:20;;;;;;;1.58;0.85;;;20.60;43.50;;;;;;4991919;28;20036;-61
2022/04/12 09:52:58;;;;;;;1.45;0.70;;;20.70;43.60;;;;;;4993065;28;20389;-62
2022/04/12 09:55:43;;;;;;;0.90;0.70;;;20.60;43.50;;;;;;4996025;28;20046;-61
2022/04/12 09:58:17;;;;;;;0.88;0.68;;;20.70;43.50;;;;;;4992410;28;20025;-62
2022/04/12 10:00:47;;;;;;;1.50;0.70;;;20.70;43.50;;;;;;4993373;28;20064;-64
2022/04/12 10:03:16;;;;;;;1.23;0.70;;;20.70;43.50;;;;;;4994609;28;20036;-64
2022/04/12 10:05:43;;;;;;;1.20;0.60;;;20.70;43.40;;;;;;4996508;28;20562;-63
2022/04/12 10:08:12;;;;;;;1.60;0.68;;;20.70;43.40;;;;;;4997868;28;20026;-62
2022/04/12 10:10:41;;;;;;;1.52;0.70;;;20.70;43.40;;;;;;4995371;28;20033;-62
2022/04/12 10:13:10;;;;;;;1.65;0.63;;;20.70;43.40;;;;;;4993964;28;20030;-63
2022/04/12 10:15:37;;;;;;;1.33;0.70;;;20.70;43.40;;;;;;4995697;28;20100;-62
2022/04/12 10:18:03;;;;;;;1.45;0.60;;;20.70;43.40;;;;;;4994669;28;20034;-60
2022/04/12 10:20:30;;;;;;;1.02;0.73;;;20.70;43.40;;;;;;4994841;28;20989;-62
2022/04/12 10:22:57;;;;;;;0.80;0.68;;;20.70;43.40;;;;;;4996327;28;20400;-63
2022/04/12 10:25:24;;;;;;;1.30;0.80;;;20.70;43.40;;;;;;4996860;28;20138;-62
2022/04/12 10:27:56;;;;;;;1.00;0.70;;;20.70;43.30;;;;;;4995716;28;20483;-62
2022/04/12 10:30:28;;;;;;;1.27;0.70;;;20.70;43.30;;;;;;4993698;28;20103;-61
2022/04/12 10:33:07;;;;;;;0.82;0.70;;;20.70;43.30;;;;;;4993870;28;20486;-63
2022/04/12 10:35:44;;;;;;;2.08;0.80;;;20.70;43.30;;;;;;4993043;28;20030;-62
2022/04/12 10:38:15;;;;;;;0.70;0.63;;;20.70;43.30;;;;;;4994703;28;20034;-61
2022/04/12 10:40:45;;;;;;;1.02;0.70;;;20.70;43.30;;;;;;4996562;28;20044;-63
2022/04/12 10:43:12;;;;;;;2.35;1.00;;;20.70;43.30;;;;;;4990156;28;20050;-63
2022/04/12 10:45:48;;;;;;;2.13;0.85;;;20.70;43.30;;;;;;4989514;28;20053;-62
2022/04/12 10:48:19;;;;;;;1.25;0.60;;;20.70;43.20;;;;;;4997039;28;20071;-64
2022/04/12 10:50:46;;;;;;;0.85;0.65;;;20.80;43.30;;;;;;4991067;28;20026;-61
2022/04/12 10:53:12;;;;;;;1.60;0.80;;;20.80;43.30;;;;;;4993972;28;20072;-61
2022/04/12 10:55:42;;;;;;;1.25;0.70;;;20.80;43.30;;;;;;4990918;28;20623;-63
2022/04/12 10:58:28;;;;;;;1.25;0.60;;;20.80;43.30;;;;;;4993110;28;20216;-62
2022/04/12 11:00:54;;;;;;;1.77;0.70;;;20.80;43.20;;;;;;4989051;28;20581;-62
2022/04/12 11:03:41;;;;;;;1.30;0.65;;;20.80;43.30;;;;;;4990830;28;20030;-62
2022/04/12 11:06:14;;;;;;;1.35;0.75;;;20.80;43.30;;;;;;4992239;28;20033;-64
2022/04/12 11:08:47;;;;;;;2.08;0.80;;;20.80;43.20;;;;;;4992879;28;20129;-65
2022/04/12 11:11:18;;;;;;;1.75;1.05;;;20.80;43.30;;;;;;5002926;28;20030;-62
2022/04/12 11:13:44;;;;;;;1.45;0.70;;;20.80;43.30;;;;;;4991114;28;20056;-62
2022/04/12 11:16:11;;;;;;;1.08;0.77;;;20.80;43.30;;;;;;4986401;28;20759;-61
2022/04/12 11:18:47;;;;;;;1.67;0.70;;;20.80;43.20;;;;;;4991904;28;20144;-63
2022/04/12 11:21:13;;;;;;;1.15;0.70;;;20.80;43.30;;;;;;4993734;28;20029;-63
2022/04/12 11:23:56;;;;;;;1.08;0.65;;;20.80;43.30;;;;;;4991006;28;20026;-63
2022/04/12 11:26:38;;;;;;;1.00;0.70;;;20.80;43.30;;;;;;4993436;28;20029;-61
2022/04/12 11:29:11;;;;;;;0.88;0.70;;;20.80;43.40;;;;;;4992000;28;20025;-61
2022/04/12 11:31:45;;;;;;;0.70;0.60;;;20.80;43.30;;;;;;4985818;28;20052;-63
2022/04/12 11:34:12;;;;;;;1.52;1.00;;;20.80;43.30;;;;;;4989360;28;20052;-63
2022/04/12 11:36:39;;;;;;;1.65;0.70;;;20.80;43.50;;;;;;4991685;28;20048;-62
2022/04/12 11:39:06;;;;;;;2.05;0.70;;;20.80;43.50;;;;;;4992392;28;20035;-63
2022/04/12 11:41:32;;;;;;;1.70;0.80;;;20.90;43.70;;;;;;4999980;28;20034;-64
2022/04/12 11:44:02;;;;;;;1.70;0.80;;;20.90;44.30;;;;;;4991789;28;20090;-62
2022/04/12 11:46:32;;;;;;;1.40;0.70;;;20.90;43.90;;;;;;4984091;28;20073;-62
2022/04/12 11:49:06;;;;;;;1.10;0.75;;;20.80;43.90;;;;;;4990525;28;20039;-62
2022/04/12 11:51:40;;;;;;;1.90;1.02;;;20.90;44.00;;;;;;4988359;28;20034;-63
2022/04/12 11:54:24;;;;;;;1.38;0.80;;;20.90;44.10;;;;;;4983878;28;20030;-64
2022/04/12 11:57:11;;;;;;;1.70;0.70;;;20.90;44.10;;;;;;4989725;28;20034;-65
2022/04/12 11:59:57;;;;;;;1.80;0.63;;;20.90;44.30;;;;;;4988874;28;20133;-63
2022/04/12 12:02:25;;;;;;;1.30;0.68;;;20.90;44.30;;;;;;4990795;28;20038;-62
2022/04/12 12:05:08;;;;;;;1.50;0.70;;;20.90;44.20;;;;;;4988510;28;20088;-62
2022/04/12 12:07:36;;;;;;;2.30;0.70;;;20.90;44.20;;;;;;4991395;28;20559;-62
2022/04/12 12:10:13;;;;;;;2.08;0.80;;;20.90;44.30;;;;;;4995338;28;20036;-62
2022/04/12 12:12:41;;;;;;;1.10;0.70;;;20.90;44.30;;;;;;4993978;28;20093;-65
2022/04/12 12:15:16;;;;;;;1.85;0.85;;;21.00;44.30;;;;;;4993663;28;20065;-64
2022/04/12 12:17:44;;;;;;;1.40;0.90;;;20.90;44.30;;;;;;4992849;28;21482;-60
2022/04/12 12:20:10;;;;;;;1.33;0.80;;;21.00;44.30;;;;;;4995232;28;20052;-62
2022/04/12 12:22:38;;;;;;;1.70;0.75;;;21.00;44.30;;;;;;4993837;28;20041;-62
2022/04/12 12:25:04;;;;;;;1.77;0.80;;;21.00;44.30;;;;;;4994741;28;20084;-62
2022/04/12 12:27:32;;;;;;;3.35;0.80;;;21.00;44.30;;;;;;4993250;28;20057;-62
2022/04/12 12:30:32;;;;;;;2.30;0.80;;;21.00;44.30;;;;;;4995066;28;20620;-65
2022/04/12 12:32:58;;;;;;;1.23;0.70;;;21.00;44.30;;;;;;4991461;28;20685;-65
2022/04/12 12:35:26;;;;;;;1.38;0.75;;;21.00;44.30;;;;;;4992597;28;20236;-65
2022/04/12 12:38:15;;;;;;;1.70;0.90;;;21.00;44.30;;;;;;4995169;28;20033;-61
2022/04/12 12:40:43;;;;;;;2.38;1.10;;;21.00;44.30;;;;;;4994793;28;20239;-63
2022/04/12 12:43:10;;;;;;;2.03;0.80;;;21.00;44.30;;;;;;4993815;28;20037;-63
2022/04/12 12:45:42;;;;;;;1.60;0.80;;;21.00;44.30;;;;;;4993640;28;20383;-63
2022/04/12 12:48:09;;;;;;;1.70;0.80;;;21.00;44.30;;;;;;4992444;28;20447;-63
2022/04/12 12:50:38;;;;;;;1.77;0.80;;;21.00;44.20;;;;;;4994808;28;20041;-63
2022/04/12 12:53:06;;;;;;;2.45;0.80;;;21.00;44.30;;;;;;4994108;28;20501;-63